sensor_id;sensor_type;location;lat;lon;timestamp;temperature;humidity
16479;DHT22;8350;52.316;10.530;2023-03-23T00:01:09;12.60;1.00
16479;DHT22;8350;52.316;10.530;2023-03-23T00:03:49;12.60;1.00
16479;DHT22;8350;52.316;10.530;2023-03-23T00:06:17;12.50;1.00
16479;DHT22;8350;52.316;10.530;2023-03-23T00:08:45;12.60;1.00
16479;DHT22;8350;52.316;10.530;2023-03-23T00:11:13;12.60;1.00
16479;DHT22;8350;52.316;10.530;2023-03-23T00:13:42;12.60;1.00
16479;DHT22;8350;52.316;10.530;2023-03-23T00:16:12;12.60;1.00
16479;DHT22;8350;52.316;10.530;2023-03-23T00:18:47;12.60;1.00
16479;DHT22;8350;52.316;10.530;2023-03-23T00:21:17;12.60;1.00
16479;DHT22;8350;52.316;10.530;2023-03-23T00:23:44;12.60;1.00
16479;DHT22;8350;52.316;10.530;2023-03-23T00:26:11;12.60;1.00
16479;DHT22;8350;52.316;10.530;2023-03-23T00:28:39;12.60;1.00
16479;DHT22;8350;52.316;10.530;2023-03-23T00:31:09;12.70;1.00
16479;DHT22;8350;52.316;10.530;2023-03-23T00:33:37;12.70;1.00
16479;DHT22;8350;52.316;10.530;2023-03-23T00:36:07;12.70;1.00
16479;DHT22;8350;52.316;10.530;2023-03-23T00:38:35;12.70;1.00
16479;DHT22;8350;52.316;10.530;2023-03-23T00:41:02;12.80;1.00
16479;DHT22;8350;52.316;10.530;2023-03-23T00:43:30;12.70;1.00
16479;DHT22;8350;52.316;10.530;2023-03-23T00:45:59;12.80;1.00
16479;DHT22;8350;52.316;10.530;2023-03-23T00:48:29;12.70;1.00
16479;DHT22;8350;52.316;10.530;2023-03-23T00:50:58;12.70;1.00
16479;DHT22;8350;52.316;10.530;2023-03-23T00:53:26;12.70;1.00
16479;DHT22;8350;52.316;10.530;2023-03-23T00:55:53;12.70;1.00
16479;DHT22;8350;52.316;10.530;2023-03-23T00:58:20;12.60;1.00
16479;DHT22;8350;52.316;10.530;2023-03-23T01:00:47;12.60;1.00
16479;DHT22;8350;52.316;10.530;2023-03-23T01:03:17;12.50;1.00
16479;DHT22;8350;52.316;10.530;2023-03-23T01:05:45;12.40;1.00
16479;DHT22;8350;52.316;10.530;2023-03-23T01:08:13;12.30;1.00
16479;DHT22;8350;52.316;10.530;2023-03-23T01:10:41;12.10;1.00
16479;DHT22;8350;52.316;10.530;2023-03-23T01:13:08;11.90;1.00
16479;DHT22;8350;52.316;10.530;2023-03-23T01:15:35;11.80;1.00
16479;DHT22;8350;52.316;10.530;2023-03-23T01:18:02;11.80;1.00
16479;DHT22;8350;52.316;10.530;2023-03-23T01:20:29;11.70;1.00
16479;DHT22;8350;52.316;10.530;2023-03-23T01:22:58;11.60;1.00
16479;DHT22;8350;52.316;10.530;2023-03-23T01:25:27;11.60;1.00
16479;DHT22;8350;52.316;10.530;2023-03-23T01:27:54;11.50;1.00
16479;DHT22;8350;52.316;10.530;2023-03-23T01:30:21;11.50;3.60
16479;DHT22;8350;52.316;10.530;2023-03-23T01:32:48;11.50;15.30
16479;DHT22;8350;52.316;10.530;2023-03-23T01:35:16;11.40;21.80
16479;DHT22;8350;52.316;10.530;2023-03-23T01:37:43;11.40;51.00
16479;DHT22;8350;52.316;10.530;2023-03-23T01:40:11;11.30;61.10
16479;DHT22;8350;52.316;10.530;2023-03-23T01:42:39;11.20;71.00
16479;DHT22;8350;52.316;10.530;2023-03-23T01:45:31;11.20;70.80
16479;DHT22;8350;52.316;10.530;2023-03-23T01:48:05;11.20;80.20
16479;DHT22;8350;52.316;10.530;2023-03-23T01:50:37;11.20;81.70
16479;DHT22;8350;52.316;10.530;2023-03-23T01:53:07;11.10;87.30
16479;DHT22;8350;52.316;10.530;2023-03-23T01:55:42;11.20;89.90
16479;DHT22;8350;52.316;10.530;2023-03-23T01:58:13;11.20;92.00
16479;DHT22;8350;52.316;10.530;2023-03-23T02:00:41;11.30;93.00
16479;DHT22;8350;52.316;10.530;2023-03-23T02:03:11;11.30;91.80
16479;DHT22;8350;52.316;10.530;2023-03-23T02:05:42;11.30;92.50
16479;DHT22;8350;52.316;10.530;2023-03-23T02:08:11;11.30;75.40
16479;DHT22;8350;52.316;10.530;2023-03-23T02:10:40;11.20;83.20
16479;DHT22;8350;52.316;10.530;2023-03-23T02:13:09;11.10;88.40
16479;DHT22;8350;52.316;10.530;2023-03-23T02:15:50;11.10;89.40
16479;DHT22;8350;52.316;10.530;2023-03-23T02:18:29;11.10;85.30
16479;DHT22;8350;52.316;10.530;2023-03-23T02:21:34;11.20;71.00
16479;DHT22;8350;52.316;10.530;2023-03-23T02:24:27;11.20;65.30
16479;DHT22;8350;52.316;10.530;2023-03-23T02:27:00;11.10;62.00
16479;DHT22;8350;52.316;10.530;2023-03-23T02:29:58;11.10;64.40
16479;DHT22;8350;52.316;10.530;2023-03-23T02:35:34;11.20;45.60
16479;DHT22;8350;52.316;10.530;2023-03-23T02:38:06;11.20;36.10
16479;DHT22;8350;52.316;10.530;2023-03-23T02:40:40;11.30;36.70
16479;DHT22;8350;52.316;10.530;2023-03-23T02:43:10;11.20;31.60
16479;DHT22;8350;52.316;10.530;2023-03-23T02:45:40;11.30;24.90
16479;DHT22;8350;52.316;10.530;2023-03-23T02:48:08;11.30;19.40
16479;DHT22;8350;52.316;10.530;2023-03-23T02:50:38;11.30;18.10
16479;DHT22;8350;52.316;10.530;2023-03-23T02:53:08;11.30;10.80
16479;DHT22;8350;52.316;10.530;2023-03-23T02:55:37;11.40;1.00
16479;DHT22;8350;52.316;10.530;2023-03-23T02:58:07;11.40;1.00
16479;DHT22;8350;52.316;10.530;2023-03-23T03:00:34;11.40;1.00
16479;DHT22;8350;52.316;10.530;2023-03-23T03:03:12;11.50;1.00
16479;DHT22;8350;52.316;10.530;2023-03-23T03:05:46;11.50;1.00
16479;DHT22;8350;52.316;10.530;2023-03-23T03:08:20;11.50;1.00
16479;DHT22;8350;52.316;10.530;2023-03-23T03:10:53;11.50;1.00
16479;DHT22;8350;52.316;10.530;2023-03-23T03:13:32;11.60;1.00
16479;DHT22;8350;52.316;10.530;2023-03-23T03:16:05;11.60;1.80
16479;DHT22;8350;52.316;10.530;2023-03-23T03:18:40;11.50;17.40
16479;DHT22;8350;52.316;10.530;2023-03-23T03:21:12;11.50;19.20
16479;DHT22;8350;52.316;10.530;2023-03-23T03:23:42;11.50;19.50
16479;DHT22;8350;52.316;10.530;2023-03-23T03:26:11;11.50;25.70
16479;DHT22;8350;52.316;10.530;2023-03-23T03:28:44;11.50;23.60
16479;DHT22;8350;52.316;10.530;2023-03-23T03:31:15;11.50;27.70
16479;DHT22;8350;52.316;10.530;2023-03-23T03:33:43;11.40;33.40
16479;DHT22;8350;52.316;10.530;2023-03-23T03:36:18;11.40;27.10
16479;DHT22;8350;52.316;10.530;2023-03-23T03:38:48;11.40;47.10
16479;DHT22;8350;52.316;10.530;2023-03-23T03:41:17;11.40;54.10
16479;DHT22;8350;52.316;10.530;2023-03-23T03:43:44;11.40;67.00
16479;DHT22;8350;52.316;10.530;2023-03-23T03:46:14;11.30;75.60
16479;DHT22;8350;52.316;10.530;2023-03-23T03:48:41;11.30;75.20
16479;DHT22;8350;52.316;10.530;2023-03-23T03:51:08;11.30;81.50
16479;DHT22;8350;52.316;10.530;2023-03-23T03:53:39;11.20;90.00
16479;DHT22;8350;52.316;10.530;2023-03-23T03:56:06;11.20;92.10
16479;DHT22;8350;52.316;10.530;2023-03-23T03:58:34;11.20;96.60
16479;DHT22;8350;52.316;10.530;2023-03-23T04:01:02;11.20;93.60
16479;DHT22;8350;52.316;10.530;2023-03-23T04:03:29;11.20;99.70
16479;DHT22;8350;52.316;10.530;2023-03-23T04:05:56;11.20;99.90
16479;DHT22;8350;52.316;10.530;2023-03-23T04:08:24;11.20;99.90
16479;DHT22;8350;52.316;10.530;2023-03-23T04:10:53;11.20;99.90
16479;DHT22;8350;52.316;10.530;2023-03-23T04:13:21;11.20;99.90
16479;DHT22;8350;52.316;10.530;2023-03-23T04:15:48;11.10;99.90
16479;DHT22;8350;52.316;10.530;2023-03-23T04:18:16;11.10;99.90
16479;DHT22;8350;52.316;10.530;2023-03-23T04:20:44;11.10;99.90
16479;DHT22;8350;52.316;10.530;2023-03-23T04:23:12;11.10;99.90
16479;DHT22;8350;52.316;10.530;2023-03-23T04:25:44;11.10;99.90
16479;DHT22;8350;52.316;10.530;2023-03-23T04:28:13;11.00;99.90
16479;DHT22;8350;52.316;10.530;2023-03-23T04:30:42;11.00;99.90
16479;DHT22;8350;52.316;10.530;2023-03-23T04:33:09;11.00;99.90
16479;DHT22;8350;52.316;10.530;2023-03-23T04:35:40;11.00;99.90
16479;DHT22;8350;52.316;10.530;2023-03-23T04:38:07;10.90;99.90
16479;DHT22;8350;52.316;10.530;2023-03-23T04:40:36;10.90;99.90
16479;DHT22;8350;52.316;10.530;2023-03-23T04:43:03;10.90;99.90
16479;DHT22;8350;52.316;10.530;2023-03-23T04:45:33;10.90;99.90
16479;DHT22;8350;52.316;10.530;2023-03-23T04:48:03;10.80;99.90
16479;DHT22;8350;52.316;10.530;2023-03-23T04:50:32;10.80;99.90
16479;DHT22;8350;52.316;10.530;2023-03-23T04:53:00;10.80;99.90
16479;DHT22;8350;52.316;10.530;2023-03-23T04:55:29;10.80;99.90
16479;DHT22;8350;52.316;10.530;2023-03-23T04:57:56;10.80;99.90
16479;DHT22;8350;52.316;10.530;2023-03-23T05:00:33;10.80;99.90
16479;DHT22;8350;52.316;10.530;2023-03-23T05:03:01;10.90;99.90
16479;DHT22;8350;52.316;10.530;2023-03-23T05:05:28;10.90;99.90
16479;DHT22;8350;52.316;10.530;2023-03-23T05:07:59;11.00;99.90
16479;DHT22;8350;52.316;10.530;2023-03-23T05:10:25;10.90;99.90
16479;DHT22;8350;52.316;10.530;2023-03-23T05:12:53;11.00;99.90
16479;DHT22;8350;52.316;10.530;2023-03-23T05:15:19;11.00;99.90
16479;DHT22;8350;52.316;10.530;2023-03-23T05:17:50;11.00;93.30
16479;DHT22;8350;52.316;10.530;2023-03-23T05:20:17;11.00;96.20
16479;DHT22;8350;52.316;10.530;2023-03-23T05:22:45;11.00;89.80
16479;DHT22;8350;52.316;10.530;2023-03-23T05:25:13;11.00;81.50
16479;DHT22;8350;52.316;10.530;2023-03-23T05:27:40;11.00;72.20
16479;DHT22;8350;52.316;10.530;2023-03-23T05:30:09;11.00;62.30
16479;DHT22;8350;52.316;10.530;2023-03-23T05:32:37;11.00;65.90
16479;DHT22;8350;52.316;10.530;2023-03-23T05:35:12;11.10;58.30
16479;DHT22;8350;52.316;10.530;2023-03-23T05:37:39;11.10;52.40
16479;DHT22;8350;52.316;10.530;2023-03-23T05:40:12;11.10;62.00
16479;DHT22;8350;52.316;10.530;2023-03-23T05:42:40;11.10;58.20
16479;DHT22;8350;52.316;10.530;2023-03-23T05:45:09;11.10;62.30
16479;DHT22;8350;52.316;10.530;2023-03-23T05:47:36;11.10;60.30
16479;DHT22;8350;52.316;10.530;2023-03-23T05:50:04;11.10;63.70
16479;DHT22;8350;52.316;10.530;2023-03-23T05:52:33;11.10;60.20
16479;DHT22;8350;52.316;10.530;2023-03-23T05:55:01;11.10;62.00
16479;DHT22;8350;52.316;10.530;2023-03-23T05:57:29;11.10;55.80
16479;DHT22;8350;52.316;10.530;2023-03-23T05:59:56;11.20;40.70
16479;DHT22;8350;52.316;10.530;2023-03-23T06:02:23;11.20;41.90
16479;DHT22;8350;52.316;10.530;2023-03-23T06:04:53;11.20;39.50
16479;DHT22;8350;52.316;10.530;2023-03-23T06:07:23;11.10;33.80
16479;DHT22;8350;52.316;10.530;2023-03-23T06:09:51;11.10;43.60
16479;DHT22;8350;52.316;10.530;2023-03-23T06:12:19;11.10;41.60
16479;DHT22;8350;52.316;10.530;2023-03-23T06:14:46;11.20;47.60
16479;DHT22;8350;52.316;10.530;2023-03-23T06:17:14;11.20;31.00
16479;DHT22;8350;52.316;10.530;2023-03-23T06:19:44;11.20;20.60
16479;DHT22;8350;52.316;10.530;2023-03-23T06:22:12;11.20;23.00
16479;DHT22;8350;52.316;10.530;2023-03-23T06:24:39;11.20;24.90
16479;DHT22;8350;52.316;10.530;2023-03-23T06:27:08;11.20;23.80
16479;DHT22;8350;52.316;10.530;2023-03-23T06:29:39;11.20;27.60
16479;DHT22;8350;52.316;10.530;2023-03-23T06:32:06;11.20;22.90
16479;DHT22;8350;52.316;10.530;2023-03-23T06:34:34;11.30;25.10
16479;DHT22;8350;52.316;10.530;2023-03-23T06:37:00;11.30;23.40
16479;DHT22;8350;52.316;10.530;2023-03-23T06:39:28;11.30;31.00
16479;DHT22;8350;52.316;10.530;2023-03-23T06:41:56;11.30;33.30
16479;DHT22;8350;52.316;10.530;2023-03-23T06:44:26;11.40;38.80
16479;DHT22;8350;52.316;10.530;2023-03-23T06:46:53;11.50;38.70
16479;DHT22;8350;52.316;10.530;2023-03-23T06:49:23;11.40;40.80
16479;DHT22;8350;52.316;10.530;2023-03-23T06:51:50;11.40;47.90
16479;DHT22;8350;52.316;10.530;2023-03-23T06:54:17;11.50;35.60
16479;DHT22;8350;52.316;10.530;2023-03-23T06:56:44;11.50;42.40
16479;DHT22;8350;52.316;10.530;2023-03-23T06:59:13;11.50;38.10
16479;DHT22;8350;52.316;10.530;2023-03-23T07:01:42;11.50;37.40
16479;DHT22;8350;52.316;10.530;2023-03-23T07:04:09;11.50;33.90
16479;DHT22;8350;52.316;10.530;2023-03-23T07:06:35;11.50;26.90
16479;DHT22;8350;52.316;10.530;2023-03-23T07:09:06;11.60;28.50
16479;DHT22;8350;52.316;10.530;2023-03-23T07:11:33;11.60;27.20
16479;DHT22;8350;52.316;10.530;2023-03-23T07:14:00;11.60;23.90
16479;DHT22;8350;52.316;10.530;2023-03-23T07:16:27;11.70;12.30
16479;DHT22;8350;52.316;10.530;2023-03-23T07:18:55;11.80;7.90
16479;DHT22;8350;52.316;10.530;2023-03-23T07:21:22;11.90;1.00
16479;DHT22;8350;52.316;10.530;2023-03-23T07:23:49;12.10;1.00
16479;DHT22;8350;52.316;10.530;2023-03-23T07:26:17;12.30;1.00
16479;DHT22;8350;52.316;10.530;2023-03-23T07:28:51;12.50;1.00
16479;DHT22;8350;52.316;10.530;2023-03-23T07:31:18;12.50;1.00
16479;DHT22;8350;52.316;10.530;2023-03-23T07:33:46;12.50;1.00
16479;DHT22;8350;52.316;10.530;2023-03-23T07:36:14;12.60;1.00
16479;DHT22;8350;52.316;10.530;2023-03-23T07:38:42;12.60;1.00
16479;DHT22;8350;52.316;10.530;2023-03-23T07:41:09;12.50;1.00
16479;DHT22;8350;52.316;10.530;2023-03-23T07:43:36;12.40;1.00
16479;DHT22;8350;52.316;10.530;2023-03-23T07:46:03;12.50;1.00
16479;DHT22;8350;52.316;10.530;2023-03-23T07:48:30;12.50;1.00
16479;DHT22;8350;52.316;10.530;2023-03-23T07:50:58;12.50;1.00
16479;DHT22;8350;52.316;10.530;2023-03-23T07:53:27;12.60;1.00
16479;DHT22;8350;52.316;10.530;2023-03-23T07:55:54;12.70;1.00
16479;DHT22;8350;52.316;10.530;2023-03-23T07:58:21;12.80;1.00
16479;DHT22;8350;52.316;10.530;2023-03-23T08:00:48;12.90;1.00
16479;DHT22;8350;52.316;10.530;2023-03-23T08:03:15;12.90;1.00
16479;DHT22;8350;52.316;10.530;2023-03-23T08:05:42;13.00;1.00
16479;DHT22;8350;52.316;10.530;2023-03-23T08:08:09;13.00;1.00
16479;DHT22;8350;52.316;10.530;2023-03-23T08:10:39;13.00;1.00
16479;DHT22;8350;52.316;10.530;2023-03-23T08:13:06;13.00;1.00
16479;DHT22;8350;52.316;10.530;2023-03-23T08:15:34;13.10;1.00
16479;DHT22;8350;52.316;10.530;2023-03-23T08:18:03;13.20;1.00
16479;DHT22;8350;52.316;10.530;2023-03-23T08:20:30;13.30;1.00
16479;DHT22;8350;52.316;10.530;2023-03-23T08:22:58;13.40;1.00
16479;DHT22;8350;52.316;10.530;2023-03-23T08:25:29;13.40;1.00
16479;DHT22;8350;52.316;10.530;2023-03-23T08:27:59;13.40;1.00
16479;DHT22;8350;52.316;10.530;2023-03-23T08:30:28;13.40;1.00
16479;DHT22;8350;52.316;10.530;2023-03-23T08:32:56;13.50;1.00
16479;DHT22;8350;52.316;10.530;2023-03-23T08:35:24;13.50;1.00
16479;DHT22;8350;52.316;10.530;2023-03-23T08:38:07;13.50;1.00
16479;DHT22;8350;52.316;10.530;2023-03-23T08:40:34;13.60;1.00
16479;DHT22;8350;52.316;10.530;2023-03-23T08:43:03;13.60;1.00
16479;DHT22;8350;52.316;10.530;2023-03-23T08:45:30;13.70;1.00
16479;DHT22;8350;52.316;10.530;2023-03-23T08:47:57;13.70;1.00
16479;DHT22;8350;52.316;10.530;2023-03-23T08:50:26;13.70;1.00
16479;DHT22;8350;52.316;10.530;2023-03-23T08:52:54;13.70;1.00
16479;DHT22;8350;52.316;10.530;2023-03-23T08:55:22;13.70;1.00
16479;DHT22;8350;52.316;10.530;2023-03-23T08:57:50;13.70;1.00
16479;DHT22;8350;52.316;10.530;2023-03-23T09:00:21;13.80;1.00
16479;DHT22;8350;52.316;10.530;2023-03-23T09:02:52;13.90;1.00
16479;DHT22;8350;52.316;10.530;2023-03-23T09:05:21;13.90;1.00
16479;DHT22;8350;52.316;10.530;2023-03-23T09:07:57;14.00;1.00
16479;DHT22;8350;52.316;10.530;2023-03-23T09:10:25;14.00;1.00
16479;DHT22;8350;52.316;10.530;2023-03-23T09:12:53;14.00;1.00
16479;DHT22;8350;52.316;10.530;2023-03-23T09:15:23;14.00;1.00
16479;DHT22;8350;52.316;10.530;2023-03-23T09:17:51;14.10;1.00
16479;DHT22;8350;52.316;10.530;2023-03-23T09:20:20;14.10;1.00
16479;DHT22;8350;52.316;10.530;2023-03-23T09:22:52;14.20;1.00
16479;DHT22;8350;52.316;10.530;2023-03-23T09:25:21;14.20;1.00
16479;DHT22;8350;52.316;10.530;2023-03-23T09:27:51;14.20;1.00
16479;DHT22;8350;52.316;10.530;2023-03-23T09:30:25;14.20;1.00
16479;DHT22;8350;52.316;10.530;2023-03-23T09:32:52;14.20;1.00
16479;DHT22;8350;52.316;10.530;2023-03-23T09:35:20;14.20;1.00
16479;DHT22;8350;52.316;10.530;2023-03-23T09:37:53;14.20;1.00
16479;DHT22;8350;52.316;10.530;2023-03-23T09:40:22;14.20;1.00
16479;DHT22;8350;52.316;10.530;2023-03-23T09:43:08;14.30;1.00
16479;DHT22;8350;52.316;10.530;2023-03-23T09:45:44;14.30;1.00
16479;DHT22;8350;52.316;10.530;2023-03-23T09:48:31;14.30;1.00
16479;DHT22;8350;52.316;10.530;2023-03-23T09:51:07;14.30;1.00
16479;DHT22;8350;52.316;10.530;2023-03-23T09:53:38;14.40;1.00
16479;DHT22;8350;52.316;10.530;2023-03-23T09:56:11;14.40;1.00
16479;DHT22;8350;52.316;10.530;2023-03-23T09:58:43;14.40;1.00
16479;DHT22;8350;52.316;10.530;2023-03-23T10:01:21;14.40;1.00
16479;DHT22;8350;52.316;10.530;2023-03-23T10:03:52;14.40;1.00
16479;DHT22;8350;52.316;10.530;2023-03-23T10:06:19;14.50;1.00
16479;DHT22;8350;52.316;10.530;2023-03-23T10:08:56;14.60;1.00
16479;DHT22;8350;52.316;10.530;2023-03-23T10:11:31;14.50;1.00
16479;DHT22;8350;52.316;10.530;2023-03-23T10:14:10;14.50;1.00
16479;DHT22;8350;52.316;10.530;2023-03-23T10:16:50;14.50;1.00
16479;DHT22;8350;52.316;10.530;2023-03-23T10:19:24;14.40;1.00
16479;DHT22;8350;52.316;10.530;2023-03-23T10:21:57;14.40;1.00
16479;DHT22;8350;52.316;10.530;2023-03-23T10:24:29;14.50;1.00
16479;DHT22;8350;52.316;10.530;2023-03-23T10:27:06;14.60;1.00
16479;DHT22;8350;52.316;10.530;2023-03-23T10:29:38;14.50;1.00
16479;DHT22;8350;52.316;10.530;2023-03-23T10:32:15;14.50;1.00
16479;DHT22;8350;52.316;10.530;2023-03-23T10:34:49;14.50;1.00
16479;DHT22;8350;52.316;10.530;2023-03-23T10:37:20;14.60;1.00
16479;DHT22;8350;52.316;10.530;2023-03-23T10:39:51;14.60;1.00
16479;DHT22;8350;52.316;10.530;2023-03-23T10:42:31;14.60;1.00
16479;DHT22;8350;52.316;10.530;2023-03-23T10:45:00;14.70;1.00
16479;DHT22;8350;52.316;10.530;2023-03-23T10:47:39;14.80;1.00
16479;DHT22;8350;52.316;10.530;2023-03-23T10:50:12;14.90;1.00
16479;DHT22;8350;52.316;10.530;2023-03-23T10:52:42;14.90;1.00
16479;DHT22;8350;52.316;10.530;2023-03-23T10:55:12;14.80;1.00
16479;DHT22;8350;52.316;10.530;2023-03-23T10:57:45;14.80;1.00
16479;DHT22;8350;52.316;10.530;2023-03-23T11:00:18;14.80;1.00
16479;DHT22;8350;52.316;10.530;2023-03-23T11:02:56;14.70;1.00
16479;DHT22;8350;52.316;10.530;2023-03-23T11:05:25;14.70;1.00
16479;DHT22;8350;52.316;10.530;2023-03-23T11:07:55;14.70;1.00
16479;DHT22;8350;52.316;10.530;2023-03-23T11:10:24;14.70;1.00
16479;DHT22;8350;52.316;10.530;2023-03-23T11:12:54;14.70;1.00
16479;DHT22;8350;52.316;10.530;2023-03-23T11:15:27;14.70;1.00
16479;DHT22;8350;52.316;10.530;2023-03-23T11:18:04;14.80;1.00
16479;DHT22;8350;52.316;10.530;2023-03-23T11:20:36;14.90;1.00
16479;DHT22;8350;52.316;10.530;2023-03-23T11:23:14;15.20;1.00
16479;DHT22;8350;52.316;10.530;2023-03-23T11:25:56;15.40;1.00
16479;DHT22;8350;52.316;10.530;2023-03-23T11:28:27;15.60;99.90
16479;DHT22;8350;52.316;10.530;2023-03-23T11:30:57;15.80;99.90
16479;DHT22;8350;52.316;10.530;2023-03-23T11:33:36;15.90;99.90
16479;DHT22;8350;52.316;10.530;2023-03-23T11:36:08;16.00;99.90
16479;DHT22;8350;52.316;10.530;2023-03-23T11:38:36;16.30;99.90
16479;DHT22;8350;52.316;10.530;2023-03-23T11:41:09;16.50;99.90
16479;DHT22;8350;52.316;10.530;2023-03-23T11:43:40;16.60;99.90
16479;DHT22;8350;52.316;10.530;2023-03-23T11:46:14;16.70;99.90
16479;DHT22;8350;52.316;10.530;2023-03-23T11:48:51;16.80;63.80
16479;DHT22;8350;52.316;10.530;2023-03-23T11:51:24;16.90;49.40
16479;DHT22;8350;52.316;10.530;2023-03-23T11:53:59;17.10;99.90
16479;DHT22;8350;52.316;10.530;2023-03-23T11:56:30;17.10;1.00
16479;DHT22;8350;52.316;10.530;2023-03-23T11:58:59;17.00;1.00
16479;DHT22;8350;52.316;10.530;2023-03-23T12:01:37;16.80;1.00
16479;DHT22;8350;52.316;10.530;2023-03-23T12:04:37;16.50;1.00
16479;DHT22;8350;52.316;10.530;2023-03-23T12:10:10;16.70;1.00
16479;DHT22;8350;52.316;10.530;2023-03-23T12:12:43;16.70;1.00
16479;DHT22;8350;52.316;10.530;2023-03-23T12:15:19;16.60;1.00
16479;DHT22;8350;52.316;10.530;2023-03-23T12:17:54;16.70;1.00
16479;DHT22;8350;52.316;10.530;2023-03-23T12:20:37;16.90;99.90
16479;DHT22;8350;52.316;10.530;2023-03-23T12:23:20;17.10;1.00
16479;DHT22;8350;52.316;10.530;2023-03-23T12:28:48;17.30;99.90
16479;DHT22;8350;52.316;10.530;2023-03-23T12:31:23;17.60;1.00
16479;DHT22;8350;52.316;10.530;2023-03-23T12:33:58;17.70;1.00
16479;DHT22;8350;52.316;10.530;2023-03-23T12:37:00;17.60;99.90
16479;DHT22;8350;52.316;10.530;2023-03-23T12:39:55;17.50;99.90
16479;DHT22;8350;52.316;10.530;2023-03-23T12:42:30;17.20;99.90
16479;DHT22;8350;52.316;10.530;2023-03-23T12:45:05;17.20;99.90
16479;DHT22;8350;52.316;10.530;2023-03-23T12:47:40;17.20;99.90
16479;DHT22;8350;52.316;10.530;2023-03-23T12:50:15;17.20;99.90
16479;DHT22;8350;52.316;10.530;2023-03-23T12:52:50;17.10;99.90
16479;DHT22;8350;52.316;10.530;2023-03-23T12:55:23;16.80;36.40
16479;DHT22;8350;52.316;10.530;2023-03-23T12:57:57;16.50;99.90
16479;DHT22;8350;52.316;10.530;2023-03-23T13:00:28;16.30;1.00
16479;DHT22;8350;52.316;10.530;2023-03-23T13:02:59;16.20;1.00
16479;DHT22;8350;52.316;10.530;2023-03-23T13:05:38;16.10;1.00
16479;DHT22;8350;52.316;10.530;2023-03-23T13:08:17;15.90;1.00
16479;DHT22;8350;52.316;10.530;2023-03-23T13:10:47;15.90;1.00
16479;DHT22;8350;52.316;10.530;2023-03-23T13:13:18;15.90;1.00
16479;DHT22;8350;52.316;10.530;2023-03-23T13:16:02;15.90;1.00
16479;DHT22;8350;52.316;10.530;2023-03-23T13:18:38;15.80;1.00
16479;DHT22;8350;52.316;10.530;2023-03-23T13:21:15;15.80;1.00
16479;DHT22;8350;52.316;10.530;2023-03-23T13:23:48;15.70;99.90
16479;DHT22;8350;52.316;10.530;2023-03-23T13:26:19;15.40;99.90
16479;DHT22;8350;52.316;10.530;2023-03-23T13:28:58;14.90;1.00
16479;DHT22;8350;52.316;10.530;2023-03-23T13:31:28;14.60;1.00
16479;DHT22;8350;52.316;10.530;2023-03-23T13:34:01;14.60;1.00
16479;DHT22;8350;52.316;10.530;2023-03-23T13:36:31;14.60;1.00
16479;DHT22;8350;52.316;10.530;2023-03-23T13:39:03;14.60;1.00
16479;DHT22;8350;52.316;10.530;2023-03-23T13:41:33;14.50;1.00
16479;DHT22;8350;52.316;10.530;2023-03-23T13:44:17;14.30;1.00
16479;DHT22;8350;52.316;10.530;2023-03-23T13:46:55;14.10;1.00
16479;DHT22;8350;52.316;10.530;2023-03-23T13:49:22;14.10;1.00
16479;DHT22;8350;52.316;10.530;2023-03-23T13:52:16;13.90;1.00
16479;DHT22;8350;52.316;10.530;2023-03-23T13:54:46;13.90;1.00
16479;DHT22;8350;52.316;10.530;2023-03-23T13:57:34;13.90;1.00
16479;DHT22;8350;52.316;10.530;2023-03-23T14:00:26;13.80;1.00
16479;DHT22;8350;52.316;10.530;2023-03-23T14:02:59;13.90;1.00
16479;DHT22;8350;52.316;10.530;2023-03-23T14:05:34;13.90;1.00
16479;DHT22;8350;52.316;10.530;2023-03-23T14:08:11;14.10;1.00
16479;DHT22;8350;52.316;10.530;2023-03-23T14:10:42;14.30;1.00
16479;DHT22;8350;52.316;10.530;2023-03-23T14:13:16;14.30;99.90
16479;DHT22;8350;52.316;10.530;2023-03-23T14:15:53;14.30;99.90
16479;DHT22;8350;52.316;10.530;2023-03-23T14:18:23;14.20;99.90
16479;DHT22;8350;52.316;10.530;2023-03-23T14:20:50;14.30;1.00
16479;DHT22;8350;52.316;10.530;2023-03-23T14:23:19;14.30;99.90
16479;DHT22;8350;52.316;10.530;2023-03-23T14:25:56;14.40;99.90
16479;DHT22;8350;52.316;10.530;2023-03-23T14:28:31;14.40;99.90
16479;DHT22;8350;52.316;10.530;2023-03-23T14:30:59;14.30;99.90
16479;DHT22;8350;52.316;10.530;2023-03-23T14:33:26;14.30;99.90
16479;DHT22;8350;52.316;10.530;2023-03-23T14:35:57;14.20;99.90
16479;DHT22;8350;52.316;10.530;2023-03-23T14:38:25;14.00;99.90
16479;DHT22;8350;52.316;10.530;2023-03-23T14:41:02;14.00;99.90
16479;DHT22;8350;52.316;10.530;2023-03-23T14:43:30;14.00;99.90
16479;DHT22;8350;52.316;10.530;2023-03-23T14:46:01;13.90;99.90
16479;DHT22;8350;52.316;10.530;2023-03-23T14:48:32;13.80;1.00
16479;DHT22;8350;52.316;10.530;2023-03-23T14:51:00;13.80;1.00
16479;DHT22;8350;52.316;10.530;2023-03-23T14:53:32;13.70;1.00
16479;DHT22;8350;52.316;10.530;2023-03-23T14:56:03;13.40;1.00
16479;DHT22;8350;52.316;10.530;2023-03-23T14:58:31;13.30;1.00
16479;DHT22;8350;52.316;10.530;2023-03-23T15:01:00;13.20;1.00
16479;DHT22;8350;52.316;10.530;2023-03-23T15:03:34;13.10;1.00
16479;DHT22;8350;52.316;10.530;2023-03-23T15:06:06;12.90;1.00
16479;DHT22;8350;52.316;10.530;2023-03-23T15:08:35;12.80;1.00
16479;DHT22;8350;52.316;10.530;2023-03-23T15:11:08;12.90;1.00
16479;DHT22;8350;52.316;10.530;2023-03-23T15:13:42;12.90;1.00
16479;DHT22;8350;52.316;10.530;2023-03-23T15:16:13;12.70;1.00
16479;DHT22;8350;52.316;10.530;2023-03-23T15:18:49;12.60;1.00
16479;DHT22;8350;52.316;10.530;2023-03-23T15:21:26;12.50;1.00
16479;DHT22;8350;52.316;10.530;2023-03-23T15:23:54;12.50;1.00
16479;DHT22;8350;52.316;10.530;2023-03-23T15:26:42;12.40;1.00
16479;DHT22;8350;52.316;10.530;2023-03-23T15:29:17;12.30;1.00
16479;DHT22;8350;52.316;10.530;2023-03-23T15:31:46;12.20;1.00
16479;DHT22;8350;52.316;10.530;2023-03-23T15:34:18;12.30;8.50
16479;DHT22;8350;52.316;10.530;2023-03-23T15:36:51;12.30;1.00
16479;DHT22;8350;52.316;10.530;2023-03-23T15:39:18;12.30;1.00
16479;DHT22;8350;52.316;10.530;2023-03-23T15:41:50;12.30;1.00
16479;DHT22;8350;52.316;10.530;2023-03-23T15:44:30;12.30;1.00
16479;DHT22;8350;52.316;10.530;2023-03-23T15:47:12;12.30;1.00
16479;DHT22;8350;52.316;10.530;2023-03-23T15:49:40;12.40;1.00
16479;DHT22;8350;52.316;10.530;2023-03-23T15:52:09;12.40;1.00
16479;DHT22;8350;52.316;10.530;2023-03-23T15:54:47;12.50;1.00
16479;DHT22;8350;52.316;10.530;2023-03-23T15:57:24;12.40;1.00
16479;DHT22;8350;52.316;10.530;2023-03-23T15:59:51;12.40;1.00
16479;DHT22;8350;52.316;10.530;2023-03-23T16:02:34;12.50;1.00
16479;DHT22;8350;52.316;10.530;2023-03-23T16:10:38;12.50;1.00
16479;DHT22;8350;52.316;10.530;2023-03-23T16:13:06;12.40;1.00
16479;DHT22;8350;52.316;10.530;2023-03-23T16:15:36;12.40;1.00
16479;DHT22;8350;52.316;10.530;2023-03-23T16:18:03;12.50;1.00
16479;DHT22;8350;52.316;10.530;2023-03-23T16:20:33;12.60;1.00